sensor_id;sensor_type;location;lat;lon;timestamp;temperature;humidity
31695;DHT22;18289;51.330;4.946;2022-11-04T00:01:57;10.90;99.90
31695;DHT22;18289;51.330;4.946;2022-11-04T00:04:25;10.90;99.90
31695;DHT22;18289;51.330;4.946;2022-11-04T00:06:52;10.90;99.90
31695;DHT22;18289;51.330;4.946;2022-11-04T00:09:22;10.80;99.90
31695;DHT22;18289;51.330;4.946;2022-11-04T00:11:49;10.80;99.90
31695;DHT22;18289;51.330;4.946;2022-11-04T00:14:33;10.80;99.90
31695;DHT22;18289;51.330;4.946;2022-11-04T00:17:00;10.80;99.90
31695;DHT22;18289;51.330;4.946;2022-11-04T00:19:49;10.70;99.90
31695;DHT22;18289;51.330;4.946;2022-11-04T00:22:34;10.60;99.90
31695;DHT22;18289;51.330;4.946;2022-11-04T00:25:19;10.60;99.90
31695;DHT22;18289;51.330;4.946;2022-11-04T00:28:10;10.70;99.90
31695;DHT22;18289;51.330;4.946;2022-11-04T00:30:56;10.70;99.90
31695;DHT22;18289;51.330;4.946;2022-11-04T00:33:22;10.70;99.90
31695;DHT22;18289;51.330;4.946;2022-11-04T00:35:55;10.60;99.90
31695;DHT22;18289;51.330;4.946;2022-11-04T00:38:22;10.70;99.90
31695;DHT22;18289;51.330;4.946;2022-11-04T00:40:49;10.50;99.90
31695;DHT22;18289;51.330;4.946;2022-11-04T00:43:14;10.50;99.90
31695;DHT22;18289;51.330;4.946;2022-11-04T00:45:41;10.30;99.90
31695;DHT22;18289;51.330;4.946;2022-11-04T00:48:07;10.30;99.90
31695;DHT22;18289;51.330;4.946;2022-11-04T00:50:33;10.20;99.90
31695;DHT22;18289;51.330;4.946;2022-11-04T00:53:00;10.20;99.90
31695;DHT22;18289;51.330;4.946;2022-11-04T00:55:26;10.10;99.90
31695;DHT22;18289;51.330;4.946;2022-11-04T00:57:52;10.10;99.90
31695;DHT22;18289;51.330;4.946;2022-11-04T01:00:18;10.00;99.90
31695;DHT22;18289;51.330;4.946;2022-11-04T01:02:44;10.10;99.90
31695;DHT22;18289;51.330;4.946;2022-11-04T01:05:10;10.10;99.90
31695;DHT22;18289;51.330;4.946;2022-11-04T01:07:37;10.00;99.90
31695;DHT22;18289;51.330;4.946;2022-11-04T01:10:03;10.00;99.90
31695;DHT22;18289;51.330;4.946;2022-11-04T01:12:29;10.00;99.90
31695;DHT22;18289;51.330;4.946;2022-11-04T01:14:55;10.00;99.90
31695;DHT22;18289;51.330;4.946;2022-11-04T01:17:20;9.90;99.90
31695;DHT22;18289;51.330;4.946;2022-11-04T01:19:46;9.90;99.90
31695;DHT22;18289;51.330;4.946;2022-11-04T01:22:12;9.90;99.90
31695;DHT22;18289;51.330;4.946;2022-11-04T01:24:37;9.90;99.90
31695;DHT22;18289;51.330;4.946;2022-11-04T01:27:03;9.90;99.90
31695;DHT22;18289;51.330;4.946;2022-11-04T01:29:29;9.80;99.90
31695;DHT22;18289;51.330;4.946;2022-11-04T01:31:54;9.70;99.90
31695;DHT22;18289;51.330;4.946;2022-11-04T01:34:20;9.80;99.90
31695;DHT22;18289;51.330;4.946;2022-11-04T01:36:46;9.90;99.90
31695;DHT22;18289;51.330;4.946;2022-11-04T01:39:11;9.80;99.90
31695;DHT22;18289;51.330;4.946;2022-11-04T01:41:38;9.80;99.90
31695;DHT22;18289;51.330;4.946;2022-11-04T01:44:45;9.80;99.90
31695;DHT22;18289;51.330;4.946;2022-11-04T01:47:49;9.70;99.90
31695;DHT22;18289;51.330;4.946;2022-11-04T01:52:55;9.60;99.90
31695;DHT22;18289;51.330;4.946;2022-11-04T01:55:28;9.50;99.90
31695;DHT22;18289;51.330;4.946;2022-11-04T01:58:00;9.50;99.90
31695;DHT22;18289;51.330;4.946;2022-11-04T02:00:27;9.50;99.90
31695;DHT22;18289;51.330;4.946;2022-11-04T02:03:42;9.40;99.90
31695;DHT22;18289;51.330;4.946;2022-11-04T02:05:47;9.40;99.90
31695;DHT22;18289;51.330;4.946;2022-11-04T02:08:14;9.40;99.90
31695;DHT22;18289;51.330;4.946;2022-11-04T02:10:43;9.30;99.90
31695;DHT22;18289;51.330;4.946;2022-11-04T02:13:12;9.30;99.90
31695;DHT22;18289;51.330;4.946;2022-11-04T02:21:29;9.20;99.90
31695;DHT22;18289;51.330;4.946;2022-11-04T02:32:02;9.30;99.90
31695;DHT22;18289;51.330;4.946;2022-11-04T02:34:51;9.40;99.90
31695;DHT22;18289;51.330;4.946;2022-11-04T02:45:44;9.30;99.90
31695;DHT22;18289;51.330;4.946;2022-11-04T02:48:19;9.40;99.90
31695;DHT22;18289;51.330;4.946;2022-11-04T02:51:01;9.40;99.90
31695;DHT22;18289;51.330;4.946;2022-11-04T02:53:44;9.40;99.90
31695;DHT22;18289;51.330;4.946;2022-11-04T02:56:13;9.50;99.90
31695;DHT22;18289;51.330;4.946;2022-11-04T02:58:46;9.40;99.90
31695;DHT22;18289;51.330;4.946;2022-11-04T03:01:16;9.50;99.90
31695;DHT22;18289;51.330;4.946;2022-11-04T03:03:49;9.50;99.90
31695;DHT22;18289;51.330;4.946;2022-11-04T03:06:20;9.40;99.90
31695;DHT22;18289;51.330;4.946;2022-11-04T03:08:50;9.50;99.90
31695;DHT22;18289;51.330;4.946;2022-11-04T03:11:23;9.40;99.90
31695;DHT22;18289;51.330;4.946;2022-11-04T03:13:58;9.40;99.90
31695;DHT22;18289;51.330;4.946;2022-11-04T03:16:41;9.40;99.90
31695;DHT22;18289;51.330;4.946;2022-11-04T03:19:17;9.40;99.90
31695;DHT22;18289;51.330;4.946;2022-11-04T03:22:14;9.20;99.90
31695;DHT22;18289;51.330;4.946;2022-11-04T03:24:41;9.30;99.90
31695;DHT22;18289;51.330;4.946;2022-11-04T03:27:53;9.30;99.90
31695;DHT22;18289;51.330;4.946;2022-11-04T03:30:22;9.20;99.90
31695;DHT22;18289;51.330;4.946;2022-11-04T03:33:11;9.20;99.90
31695;DHT22;18289;51.330;4.946;2022-11-04T03:35:41;9.20;99.90
31695;DHT22;18289;51.330;4.946;2022-11-04T03:38:07;9.20;99.90
31695;DHT22;18289;51.330;4.946;2022-11-04T03:40:33;9.20;99.90
31695;DHT22;18289;51.330;4.946;2022-11-04T03:43:10;9.20;99.90
31695;DHT22;18289;51.330;4.946;2022-11-04T03:45:38;9.30;99.90
31695;DHT22;18289;51.330;4.946;2022-11-04T03:48:05;9.20;99.90
31695;DHT22;18289;51.330;4.946;2022-11-04T03:50:33;9.20;99.90
31695;DHT22;18289;51.330;4.946;2022-11-04T03:53:03;9.30;99.90
31695;DHT22;18289;51.330;4.946;2022-11-04T04:04:29;9.40;99.90
31695;DHT22;18289;51.330;4.946;2022-11-04T04:07:40;9.50;99.90
31695;DHT22;18289;51.330;4.946;2022-11-04T04:10:14;9.40;99.90
31695;DHT22;18289;51.330;4.946;2022-11-04T04:15:57;9.40;99.90
31695;DHT22;18289;51.330;4.946;2022-11-04T04:18:37;9.40;99.90
31695;DHT22;18289;51.330;4.946;2022-11-04T04:21:21;9.40;99.90
31695;DHT22;18289;51.330;4.946;2022-11-04T04:23:49;9.50;99.90
31695;DHT22;18289;51.330;4.946;2022-11-04T04:26:36;9.50;99.90
31695;DHT22;18289;51.330;4.946;2022-11-04T04:29:21;9.60;99.90
31695;DHT22;18289;51.330;4.946;2022-11-04T04:31:48;9.70;99.90
31695;DHT22;18289;51.330;4.946;2022-11-04T04:34:17;9.60;99.90
31695;DHT22;18289;51.330;4.946;2022-11-04T04:39:24;9.70;99.90
31695;DHT22;18289;51.330;4.946;2022-11-04T04:42:10;9.70;99.90
31695;DHT22;18289;51.330;4.946;2022-11-04T04:44:54;9.70;99.90
31695;DHT22;18289;51.330;4.946;2022-11-04T04:50:04;9.80;99.90
31695;DHT22;18289;51.330;4.946;2022-11-04T04:52:36;9.80;99.90
31695;DHT22;18289;51.330;4.946;2022-11-04T04:55:03;9.70;99.90
31695;DHT22;18289;51.330;4.946;2022-11-04T04:57:28;9.70;99.90
31695;DHT22;18289;51.330;4.946;2022-11-04T04:59:54;9.80;99.90
31695;DHT22;18289;51.330;4.946;2022-11-04T05:02:20;9.80;99.90
31695;DHT22;18289;51.330;4.946;2022-11-04T05:04:45;9.80;99.90
31695;DHT22;18289;51.330;4.946;2022-11-04T05:07:11;9.90;99.90
31695;DHT22;18289;51.330;4.946;2022-11-04T05:09:36;9.80;99.90
31695;DHT22;18289;51.330;4.946;2022-11-04T05:12:02;9.70;99.90
31695;DHT22;18289;51.330;4.946;2022-11-04T05:14:28;9.70;99.90
31695;DHT22;18289;51.330;4.946;2022-11-04T05:16:54;9.80;99.90
31695;DHT22;18289;51.330;4.946;2022-11-04T05:19:20;9.70;99.90
31695;DHT22;18289;51.330;4.946;2022-11-04T05:21:46;9.70;99.90
31695;DHT22;18289;51.330;4.946;2022-11-04T05:24:12;9.80;99.90
31695;DHT22;18289;51.330;4.946;2022-11-04T05:26:37;9.80;99.90
31695;DHT22;18289;51.330;4.946;2022-11-04T05:29:03;9.80;99.90
31695;DHT22;18289;51.330;4.946;2022-11-04T05:31:29;9.90;99.90
31695;DHT22;18289;51.330;4.946;2022-11-04T05:33:55;9.90;99.90
31695;DHT22;18289;51.330;4.946;2022-11-04T05:36:21;9.90;99.90
31695;DHT22;18289;51.330;4.946;2022-11-04T05:38:51;9.90;99.90
31695;DHT22;18289;51.330;4.946;2022-11-04T05:41:18;9.80;99.90
31695;DHT22;18289;51.330;4.946;2022-11-04T05:43:57;9.90;99.90
31695;DHT22;18289;51.330;4.946;2022-11-04T05:46:23;9.90;99.90
31695;DHT22;18289;51.330;4.946;2022-11-04T05:48:49;9.90;99.90
31695;DHT22;18289;51.330;4.946;2022-11-04T05:51:18;9.90;99.90
31695;DHT22;18289;51.330;4.946;2022-11-04T05:53:43;9.80;99.90
31695;DHT22;18289;51.330;4.946;2022-11-04T05:56:09;9.70;99.90
31695;DHT22;18289;51.330;4.946;2022-11-04T05:58:35;9.70;99.90
31695;DHT22;18289;51.330;4.946;2022-11-04T06:03:49;9.60;99.90
31695;DHT22;18289;51.330;4.946;2022-11-04T06:06:14;9.60;99.90
31695;DHT22;18289;51.330;4.946;2022-11-04T06:08:40;9.70;99.90
31695;DHT22;18289;51.330;4.946;2022-11-04T06:11:06;9.70;99.90
31695;DHT22;18289;51.330;4.946;2022-11-04T06:13:32;9.80;99.90
31695;DHT22;18289;51.330;4.946;2022-11-04T06:15:57;9.80;99.90
31695;DHT22;18289;51.330;4.946;2022-11-04T06:18:23;9.80;99.90
31695;DHT22;18289;51.330;4.946;2022-11-04T06:20:49;9.90;99.90
31695;DHT22;18289;51.330;4.946;2022-11-04T06:23:14;9.90;99.90
31695;DHT22;18289;51.330;4.946;2022-11-04T06:25:40;9.90;99.90
31695;DHT22;18289;51.330;4.946;2022-11-04T06:28:06;10.00;99.90
31695;DHT22;18289;51.330;4.946;2022-11-04T06:30:31;9.90;99.90
31695;DHT22;18289;51.330;4.946;2022-11-04T06:32:57;10.00;99.90
31695;DHT22;18289;51.330;4.946;2022-11-04T06:35:22;10.10;99.90
31695;DHT22;18289;51.330;4.946;2022-11-04T06:37:48;10.10;99.90
31695;DHT22;18289;51.330;4.946;2022-11-04T06:40:14;10.10;99.90
31695;DHT22;18289;51.330;4.946;2022-11-04T06:42:39;10.10;99.90
31695;DHT22;18289;51.330;4.946;2022-11-04T06:45:08;10.10;99.90
31695;DHT22;18289;51.330;4.946;2022-11-04T06:47:34;10.20;99.90
31695;DHT22;18289;51.330;4.946;2022-11-04T06:49:59;10.20;99.90
31695;DHT22;18289;51.330;4.946;2022-11-04T06:52:26;10.20;99.90
31695;DHT22;18289;51.330;4.946;2022-11-04T06:54:52;10.20;99.90
31695;DHT22;18289;51.330;4.946;2022-11-04T06:57:17;10.20;99.90
31695;DHT22;18289;51.330;4.946;2022-11-04T06:59:43;10.20;99.90
31695;DHT22;18289;51.330;4.946;2022-11-04T07:02:12;10.20;99.90
31695;DHT22;18289;51.330;4.946;2022-11-04T07:04:38;10.30;99.90
31695;DHT22;18289;51.330;4.946;2022-11-04T07:07:03;10.30;99.90
31695;DHT22;18289;51.330;4.946;2022-11-04T07:09:29;10.30;99.90
31695;DHT22;18289;51.330;4.946;2022-11-04T07:11:55;10.30;99.90
31695;DHT22;18289;51.330;4.946;2022-11-04T07:14:21;10.30;99.90
31695;DHT22;18289;51.330;4.946;2022-11-04T07:16:50;10.30;99.90
31695;DHT22;18289;51.330;4.946;2022-11-04T07:19:16;10.40;99.90
31695;DHT22;18289;51.330;4.946;2022-11-04T07:21:41;10.40;99.90
31695;DHT22;18289;51.330;4.946;2022-11-04T07:24:07;10.40;99.90
31695;DHT22;18289;51.330;4.946;2022-11-04T07:26:33;10.50;99.90
31695;DHT22;18289;51.330;4.946;2022-11-04T07:28:58;10.50;99.90
31695;DHT22;18289;51.330;4.946;2022-11-04T07:31:25;10.60;99.90
31695;DHT22;18289;51.330;4.946;2022-11-04T07:33:52;10.60;99.90
31695;DHT22;18289;51.330;4.946;2022-11-04T07:36:18;10.60;99.90
31695;DHT22;18289;51.330;4.946;2022-11-04T07:38:44;10.70;99.90
31695;DHT22;18289;51.330;4.946;2022-11-04T07:41:11;10.70;99.90
31695;DHT22;18289;51.330;4.946;2022-11-04T07:43:36;10.70;99.90
31695;DHT22;18289;51.330;4.946;2022-11-04T07:46:04;10.70;99.90
31695;DHT22;18289;51.330;4.946;2022-11-04T07:48:30;10.80;99.90
31695;DHT22;18289;51.330;4.946;2022-11-04T07:50:57;10.80;99.90
31695;DHT22;18289;51.330;4.946;2022-11-04T07:53:24;10.80;99.90
31695;DHT22;18289;51.330;4.946;2022-11-04T07:55:50;10.80;99.90
31695;DHT22;18289;51.330;4.946;2022-11-04T07:58:19;10.80;99.90
31695;DHT22;18289;51.330;4.946;2022-11-04T08:00:45;10.90;99.90
31695;DHT22;18289;51.330;4.946;2022-11-04T08:03:11;10.90;99.90
31695;DHT22;18289;51.330;4.946;2022-11-04T08:05:37;10.90;99.90
31695;DHT22;18289;51.330;4.946;2022-11-04T08:08:03;10.90;99.90
31695;DHT22;18289;51.330;4.946;2022-11-04T08:10:28;10.90;99.90
31695;DHT22;18289;51.330;4.946;2022-11-04T08:12:54;11.00;99.90
31695;DHT22;18289;51.330;4.946;2022-11-04T08:15:20;11.10;99.90
31695;DHT22;18289;51.330;4.946;2022-11-04T08:17:45;11.20;99.90
31695;DHT22;18289;51.330;4.946;2022-11-04T08:20:11;11.30;99.90
31695;DHT22;18289;51.330;4.946;2022-11-04T08:22:37;11.30;99.90
31695;DHT22;18289;51.330;4.946;2022-11-04T08:25:03;11.30;99.90
31695;DHT22;18289;51.330;4.946;2022-11-04T08:27:30;11.40;99.90
31695;DHT22;18289;51.330;4.946;2022-11-04T08:29:56;11.40;99.90
31695;DHT22;18289;51.330;4.946;2022-11-04T08:32:22;11.40;99.90
31695;DHT22;18289;51.330;4.946;2022-11-04T08:34:48;11.60;99.90
31695;DHT22;18289;51.330;4.946;2022-11-04T08:37:15;11.60;99.90
31695;DHT22;18289;51.330;4.946;2022-11-04T08:39:41;11.70;99.90
31695;DHT22;18289;51.330;4.946;2022-11-04T08:42:07;11.80;99.90
31695;DHT22;18289;51.330;4.946;2022-11-04T08:44:33;11.80;99.90
31695;DHT22;18289;51.330;4.946;2022-11-04T08:46:59;11.90;99.90
31695;DHT22;18289;51.330;4.946;2022-11-04T08:49:25;12.00;99.90
31695;DHT22;18289;51.330;4.946;2022-11-04T08:51:51;12.00;99.90
31695;DHT22;18289;51.330;4.946;2022-11-04T08:54:25;12.00;99.90
31695;DHT22;18289;51.330;4.946;2022-11-04T08:56:52;12.00;99.90
31695;DHT22;18289;51.330;4.946;2022-11-04T08:59:18;12.00;99.90
31695;DHT22;18289;51.330;4.946;2022-11-04T09:01:44;12.10;99.90
31695;DHT22;18289;51.330;4.946;2022-11-04T09:04:10;12.20;99.90
31695;DHT22;18289;51.330;4.946;2022-11-04T09:06:39;12.20;99.90
31695;DHT22;18289;51.330;4.946;2022-11-04T09:09:08;12.30;99.90
31695;DHT22;18289;51.330;4.946;2022-11-04T09:11:38;12.30;99.90
31695;DHT22;18289;51.330;4.946;2022-11-04T09:14:04;12.50;99.90
31695;DHT22;18289;51.330;4.946;2022-11-04T09:16:31;12.70;99.90
31695;DHT22;18289;51.330;4.946;2022-11-04T09:18:58;12.70;99.90
31695;DHT22;18289;51.330;4.946;2022-11-04T09:21:25;12.80;99.90
31695;DHT22;18289;51.330;4.946;2022-11-04T09:23:52;12.70;99.90
31695;DHT22;18289;51.330;4.946;2022-11-04T09:26:18;12.70;99.90
31695;DHT22;18289;51.330;4.946;2022-11-04T09:28:44;12.60;99.90
31695;DHT22;18289;51.330;4.946;2022-11-04T09:31:15;12.50;99.90
31695;DHT22;18289;51.330;4.946;2022-11-04T09:33:42;12.40;99.90
31695;DHT22;18289;51.330;4.946;2022-11-04T09:36:08;12.40;99.90
31695;DHT22;18289;51.330;4.946;2022-11-04T09:38:37;12.50;99.90
31695;DHT22;18289;51.330;4.946;2022-11-04T09:44:49;12.60;99.90
31695;DHT22;18289;51.330;4.946;2022-11-04T09:47:17;12.90;99.90
31695;DHT22;18289;51.330;4.946;2022-11-04T09:49:50;13.00;99.90
31695;DHT22;18289;51.330;4.946;2022-11-04T09:52:23;13.40;99.90
31695;DHT22;18289;51.330;4.946;2022-11-04T09:55:09;13.60;99.90
31695;DHT22;18289;51.330;4.946;2022-11-04T09:57:37;13.70;99.90
31695;DHT22;18289;51.330;4.946;2022-11-04T10:00:04;14.00;99.90
31695;DHT22;18289;51.330;4.946;2022-11-04T10:05:43;14.30;99.90
31695;DHT22;18289;51.330;4.946;2022-11-04T10:11:20;14.20;99.90
31695;DHT22;18289;51.330;4.946;2022-11-04T10:17:00;14.20;99.90
31695;DHT22;18289;51.330;4.946;2022-11-04T10:19:37;14.20;99.90
31695;DHT22;18289;51.330;4.946;2022-11-04T10:22:27;14.20;99.90
31695;DHT22;18289;51.330;4.946;2022-11-04T10:25:19;14.20;99.90
31695;DHT22;18289;51.330;4.946;2022-11-04T10:27:46;14.30;99.90
31695;DHT22;18289;51.330;4.946;2022-11-04T10:30:23;14.20;99.90
31695;DHT22;18289;51.330;4.946;2022-11-04T10:35:57;14.40;99.90
31695;DHT22;18289;51.330;4.946;2022-11-04T10:41:25;14.60;99.90
31695;DHT22;18289;51.330;4.946;2022-11-04T10:43:55;14.70;99.90
31695;DHT22;18289;51.330;4.946;2022-11-04T10:46:41;14.80;99.90
31695;DHT22;18289;51.330;4.946;2022-11-04T10:49:37;14.80;99.90
31695;DHT22;18289;51.330;4.946;2022-11-04T10:52:06;14.80;99.90
31695;DHT22;18289;51.330;4.946;2022-11-04T10:54:42;14.70;99.90
31695;DHT22;18289;51.330;4.946;2022-11-04T10:57:09;14.70;99.90
31695;DHT22;18289;51.330;4.946;2022-11-04T10:59:53;14.70;99.90
31695;DHT22;18289;51.330;4.946;2022-11-04T11:05:21;14.80;99.90
31695;DHT22;18289;51.330;4.946;2022-11-04T11:07:50;14.70;99.90
31695;DHT22;18289;51.330;4.946;2022-11-04T11:10:20;14.70;99.90
31695;DHT22;18289;51.330;4.946;2022-11-04T11:13:02;14.70;99.90
31695;DHT22;18289;51.330;4.946;2022-11-04T11:15:34;14.60;99.90
31695;DHT22;18289;51.330;4.946;2022-11-04T11:18:14;14.40;99.90
31695;DHT22;18289;51.330;4.946;2022-11-04T11:20:41;14.50;99.90
31695;DHT22;18289;51.330;4.946;2022-11-04T11:23:43;14.50;99.90
31695;DHT22;18289;51.330;4.946;2022-11-04T11:26:16;14.80;99.90
31695;DHT22;18289;51.330;4.946;2022-11-04T11:28:54;15.10;99.90
31695;DHT22;18289;51.330;4.946;2022-11-04T11:31:37;15.50;99.90
31695;DHT22;18289;51.330;4.946;2022-11-04T11:34:15;16.10;99.90
31695;DHT22;18289;51.330;4.946;2022-11-04T11:36:43;16.70;99.90
31695;DHT22;18289;51.330;4.946;2022-11-04T11:42:10;18.40;99.90
31695;DHT22;18289;51.330;4.946;2022-11-04T11:45:05;20.00;99.90
31695;DHT22;18289;51.330;4.946;2022-11-04T11:47:36;19.80;99.90
31695;DHT22;18289;51.330;4.946;2022-11-04T11:52:39;21.00;99.90
31695;DHT22;18289;51.330;4.946;2022-11-04T11:55:24;20.10;99.90
31695;DHT22;18289;51.330;4.946;2022-11-04T12:00:21;20.20;99.90
31695;DHT22;18289;51.330;4.946;2022-11-04T12:02:59;19.50;99.90
31695;DHT22;18289;51.330;4.946;2022-11-04T12:05:44;19.30;99.90
31695;DHT22;18289;51.330;4.946;2022-11-04T12:11:14;19.30;99.90
31695;DHT22;18289;51.330;4.946;2022-11-04T12:14:02;20.40;99.90
31695;DHT22;18289;51.330;4.946;2022-11-04T12:16:42;21.50;99.90
31695;DHT22;18289;51.330;4.946;2022-11-04T12:19:33;22.50;99.90
31695;DHT22;18289;51.330;4.946;2022-11-04T12:30:36;24.20;99.90
31695;DHT22;18289;51.330;4.946;2022-11-04T12:33:23;22.90;99.90
31695;DHT22;18289;51.330;4.946;2022-11-04T12:55:38;22.80;99.90
31695;DHT22;18289;51.330;4.946;2022-11-04T12:58:27;23.00;99.90
31695;DHT22;18289;51.330;4.946;2022-11-04T13:01:02;23.00;99.90
31695;DHT22;18289;51.330;4.946;2022-11-04T13:06:45;22.10;99.90
31695;DHT22;18289;51.330;4.946;2022-11-04T13:09:13;22.00;99.90
31695;DHT22;18289;51.330;4.946;2022-11-04T13:11:51;21.20;99.90
31695;DHT22;18289;51.330;4.946;2022-11-04T13:14:27;20.70;99.90
31695;DHT22;18289;51.330;4.946;2022-11-04T13:16:57;20.50;99.90
31695;DHT22;18289;51.330;4.946;2022-11-04T13:19:28;20.00;99.90
31695;DHT22;18289;51.330;4.946;2022-11-04T13:21:58;19.60;99.90
31695;DHT22;18289;51.330;4.946;2022-11-04T13:24:32;19.10;99.90
31695;DHT22;18289;51.330;4.946;2022-11-04T13:27:19;18.80;99.90
31695;DHT22;18289;51.330;4.946;2022-11-04T13:29:46;18.40;99.90
31695;DHT22;18289;51.330;4.946;2022-11-04T13:32:24;17.40;99.90
31695;DHT22;18289;51.330;4.946;2022-11-04T13:35:24;17.20;99.90
31695;DHT22;18289;51.330;4.946;2022-11-04T13:38:09;16.60;99.90
31695;DHT22;18289;51.330;4.946;2022-11-04T13:43:34;15.90;99.90
31695;DHT22;18289;51.330;4.946;2022-11-04T13:46:26;15.90;99.90
31695;DHT22;18289;51.330;4.946;2022-11-04T13:51:45;15.70;99.90
31695;DHT22;18289;51.330;4.946;2022-11-04T13:54:36;15.80;99.90
31695;DHT22;18289;51.330;4.946;2022-11-04T13:57:19;15.80;99.90
31695;DHT22;18289;51.330;4.946;2022-11-04T14:16:04;15.10;99.90
31695;DHT22;18289;51.330;4.946;2022-11-04T14:18:31;15.00;99.90
31695;DHT22;18289;51.330;4.946;2022-11-04T14:23:30;14.90;99.90
31695;DHT22;18289;51.330;4.946;2022-11-04T14:26:05;14.80;99.90
31695;DHT22;18289;51.330;4.946;2022-11-04T14:28:32;14.80;99.90
31695;DHT22;18289;51.330;4.946;2022-11-04T14:31:04;14.60;99.90
31695;DHT22;18289;51.330;4.946;2022-11-04T14:33:54;14.60;99.90
31695;DHT22;18289;51.330;4.946;2022-11-04T14:46:44;14.40;99.90
31695;DHT22;18289;51.330;4.946;2022-11-04T14:49:38;14.30;99.90
31695;DHT22;18289;51.330;4.946;2022-11-04T14:52:43;14.20;99.90
31695;DHT22;18289;51.330;4.946;2022-11-04T15:00:28;15.30;99.90
31695;DHT22;18289;51.330;4.946;2022-11-04T15:05:36;16.00;99.90
31695;DHT22;18289;51.330;4.946;2022-11-04T15:10:52;15.50;99.90
31695;DHT22;18289;51.330;4.946;2022-11-04T15:13:21;15.40;99.90
31695;DHT22;18289;51.330;4.946;2022-11-04T15:15:47;15.20;99.90
31695;DHT22;18289;51.330;4.946;2022-11-04T15:18:19;15.00;99.90
31695;DHT22;18289;51.330;4.946;2022-11-04T15:20:51;14.90;99.90
31695;DHT22;18289;51.330;4.946;2022-11-04T15:26:25;14.40;99.90
31695;DHT22;18289;51.330;4.946;2022-11-04T15:28:52;14.00;99.90
31695;DHT22;18289;51.330;4.946;2022-11-04T15:31:28;13.90;99.90
31695;DHT22;18289;51.330;4.946;2022-11-04T15:33:57;13.60;99.90
31695;DHT22;18289;51.330;4.946;2022-11-04T15:36:27;13.40;99.90
31695;DHT22;18289;51.330;4.946;2022-11-04T15:38:59;13.30;99.90
31695;DHT22;18289;51.330;4.946;2022-11-04T15:41:28;13.20;99.90
31695;DHT22;18289;51.330;4.946;2022-11-04T15:44:17;13.00;99.90
31695;DHT22;18289;51.330;4.946;2022-11-04T15:46:53;13.10;99.90
31695;DHT22;18289;51.330;4.946;2022-11-04T15:49:22;13.20;99.90
31695;DHT22;18289;51.330;4.946;2022-11-04T15:51:49;13.00;99.90
31695;DHT22;18289;51.330;4.946;2022-11-04T15:54:20;12.80;99.90
31695;DHT22;18289;51.330;4.946;2022-11-04T15:56:50;12.70;99.90
31695;DHT22;18289;51.330;4.946;2022-11-04T15:59:32;12.60;99.90
31695;DHT22;18289;51.330;4.946;2022-11-04T16:01:59;12.60;99.90
31695;DHT22;18289;51.330;4.946;2022-11-04T16:04:27;12.50;99.90
31695;DHT22;18289;51.330;4.946;2022-11-04T16:09:52;12.30;99.90
31695;DHT22;18289;51.330;4.946;2022-11-04T16:12:33;12.20;99.90
31695;DHT22;18289;51.330;4.946;2022-11-04T16:14:59;12.20;99.90
31695;DHT22;18289;51.330;4.946;2022-11-04T16:17:27;12.30;99.90
31695;DHT22;18289;51.330;4.946;2022-11-04T16:20:03;12.30;99.90
31695;DHT22;18289;51.330;4.946;2022-11-04T16:22:35;12.30;99.90
31695;DHT22;18289;51.330;4.946;2022-11-04T16:25:06;12.30;99.90
31695;DHT22;18289;51.330;4.946;2022-11-04T16:27:36;12.40;99.90
31695;DHT22;18289;51.330;4.946;2022-11-04T16:32:40;12.30;99.90
31695;DHT22;18289;51.330;4.946;2022-11-04T16:35:17;12.30;99.90
31695;DHT22;18289;51.330;4.946;2022-11-04T16:37:44;12.40;99.90
31695;DHT22;18289;51.330;4.946;2022-11-04T16:40:11;12.20;99.90
31695;DHT22;18289;51.330;4.946;2022-11-04T16:42:36;12.20;99.90
31695;DHT22;18289;51.330;4.946;2022-11-04T16:45:03;12.10;99.90
31695;DHT22;18289;51.330;4.946;2022-11-04T16:47:32;11.90;99.90
31695;DHT22;18289;51.330;4.946;2022-11-04T16:50:00;11.90;99.90
31695;DHT22;18289;51.330;4.946;2022-11-04T16:52:25;11.90;99.90
31695;DHT22;18289;51.330;4.946;2022-11-04T16:54:52;12.00;99.90
31695;DHT22;18289;51.330;4.946;2022-11-04T16:57:21;11.90;99.90
31695;DHT22;18289;51.330;4.946;2022-11-04T16:59:48;11.90;99.90
31695;DHT22;18289;51.330;4.946;2022-11-04T17:02:30;11.80;99.90
31695;DHT22;18289;51.330;4.946;2022-11-04T17:05:04;11.70;99.90
31695;DHT22;18289;51.330;4.946;2022-11-04T17:07:30;11.70;99.90
31695;DHT22;18289;51.330;4.946;2022-11-04T17:09:56;11.60;99.90
31695;DHT22;18289;51.330;4.946;2022-11-04T17:12:21;11.70;99.90
31695;DHT22;18289;51.330;4.946;2022-11-04T17:14:47;11.60;99.90
31695;DHT22;18289;51.330;4.946;2022-11-04T17:17:13;11.70;99.90
31695;DHT22;18289;51.330;4.946;2022-11-04T17:19:38;11.70;99.90
31695;DHT22;18289;51.330;4.946;2022-11-04T17:22:06;11.70;99.90
31695;DHT22;18289;51.330;4.946;2022-11-04T17:24:33;11.60;99.90
31695;DHT22;18289;51.330;4.946;2022-11-04T17:26:59;11.50;99.90
31695;DHT22;18289;51.330;4.946;2022-11-04T17:29:24;11.50;99.90
31695;DHT22;18289;51.330;4.946;2022-11-04T17:31:50;11.40;99.90
31695;DHT22;18289;51.330;4.946;2022-11-04T17:34:20;11.30;99.90
31695;DHT22;18289;51.330;4.946;2022-11-04T17:36:51;11.30;99.90
31695;DHT22;18289;51.330;4.946;2022-11-04T17:39:16;11.30;99.90
31695;DHT22;18289;51.330;4.946;2022-11-04T17:41:42;11.20;99.90
31695;DHT22;18289;51.330;4.946;2022-11-04T17:44:26;11.20;99.90
31695;DHT22;18289;51.330;4.946;2022-11-04T17:46:52;11.10;99.90
31695;DHT22;18289;51.330;4.946;2022-11-04T17:49:21;11.00;99.90
31695;DHT22;18289;51.330;4.946;2022-11-04T17:51:53;11.10;99.90
31695;DHT22;18289;51.330;4.946;2022-11-04T17:54:20;11.10;99.90
31695;DHT22;18289;51.330;4.946;2022-11-04T17:56:45;11.10;99.90
31695;DHT22;18289;51.330;4.946;2022-11-04T17:59:13;11.10;99.90
31695;DHT22;18289;51.330;4.946;2022-11-04T18:01:40;11.10;99.90
31695;DHT22;18289;51.330;4.946;2022-11-04T18:04:07;11.20;99.90
31695;DHT22;18289;51.330;4.946;2022-11-04T18:06:36;11.10;99.90
31695;DHT22;18289;51.330;4.946;2022-11-04T18:09:03;11.00;99.90
31695;DHT22;18289;51.330;4.946;2022-11-04T18:11:29;10.90;99.90
31695;DHT22;18289;51.330;4.946;2022-11-04T18:14:14;10.80;99.90
31695;DHT22;18289;51.330;4.946;2022-11-04T18:16:41;10.80;99.90
31695;DHT22;18289;51.330;4.946;2022-11-04T18:19:07;10.70;99.90
31695;DHT22;18289;51.330;4.946;2022-11-04T18:21:33;10.70;99.90
31695;DHT22;18289;51.330;4.946;2022-11-04T18:23:58;10.70;99.90
31695;DHT22;18289;51.330;4.946;2022-11-04T18:26:24;10.60;99.90
31695;DHT22;18289;51.330;4.946;2022-11-04T18:28:50;10.50;99.90
31695;DHT22;18289;51.330;4.946;2022-11-04T18:31:28;10.40;99.90
31695;DHT22;18289;51.330;4.946;2022-11-04T18:33:54;10.40;99.90
31695;DHT22;18289;51.330;4.946;2022-11-04T18:36:22;10.40;99.90
31695;DHT22;18289;51.330;4.946;2022-11-04T18:38:47;10.30;99.90
31695;DHT22;18289;51.330;4.946;2022-11-04T18:41:14;10.20;99.90
31695;DHT22;18289;51.330;4.946;2022-11-04T18:43:40;10.20;99.90